sensor_id;sensor_type;location;lat;lon;timestamp;pressure;altitude;pressure_sealevel;temperature;humidity
55517;BME280;41724;51.176;-0.708;2022-10-28T00:02:09;100863.74;;;19.66;56.05
55517;BME280;41724;51.176;-0.708;2022-10-28T00:04:36;100864.34;;;19.86;56.59
55517;BME280;41724;51.176;-0.708;2022-10-28T00:07:04;100865.37;;;19.60;56.40
55517;BME280;41724;51.176;-0.708;2022-10-28T00:09:31;100862.01;;;19.90;55.83
55517;BME280;41724;51.176;-0.708;2022-10-28T00:11:58;100860.81;;;19.53;55.52
55517;BME280;41724;51.176;-0.708;2022-10-28T00:14:25;100863.42;;;19.91;55.89
55517;BME280;41724;51.176;-0.708;2022-10-28T00:16:53;100865.73;;;19.17;57.28
55517;BME280;41724;51.176;-0.708;2022-10-28T00:19:20;100863.63;;;19.23;57.60
55517;BME280;41724;51.176;-0.708;2022-10-28T00:21:47;100856.76;;;19.30;56.65
55517;BME280;41724;51.176;-0.708;2022-10-28T00:24:14;100856.37;;;19.34;56.18
55517;BME280;41724;51.176;-0.708;2022-10-28T00:26:42;100860.76;;;19.58;56.17
55517;BME280;41724;51.176;-0.708;2022-10-28T00:29:11;100860.83;;;19.55;56.00
55517;BME280;41724;51.176;-0.708;2022-10-28T00:31:40;100857.00;;;19.19;55.94
55517;BME280;41724;51.176;-0.708;2022-10-28T00:34:09;100854.20;;;19.17;56.52
55517;BME280;41724;51.176;-0.708;2022-10-28T00:36:39;100856.11;;;19.21;56.29
55517;BME280;41724;51.176;-0.708;2022-10-28T00:39:12;100858.67;;;19.47;55.85
55517;BME280;41724;51.176;-0.708;2022-10-28T00:41:44;100867.43;;;19.27;56.74
55517;BME280;41724;51.176;-0.708;2022-10-28T00:45:17;100866.54;;;19.14;56.17
55517;BME280;41724;51.176;-0.708;2022-10-28T00:47:49;100866.61;;;19.07;56.57
55517;BME280;41724;51.176;-0.708;2022-10-28T00:50:39;100858.18;;;19.31;56.68
55517;BME280;41724;51.176;-0.708;2022-10-28T00:53:11;100858.72;;;19.22;56.63
55517;BME280;41724;51.176;-0.708;2022-10-28T00:55:40;100857.81;;;19.24;56.63
55517;BME280;41724;51.176;-0.708;2022-10-28T00:58:09;100859.45;;;19.21;56.56
55517;BME280;41724;51.176;-0.708;2022-10-28T01:00:37;100856.11;;;19.27;56.56
55517;BME280;41724;51.176;-0.708;2022-10-28T01:03:04;100859.72;;;18.83;57.61
55517;BME280;41724;51.176;-0.708;2022-10-28T01:05:35;100857.37;;;18.98;57.60
55517;BME280;41724;51.176;-0.708;2022-10-28T01:08:04;100853.80;;;19.14;57.49
55517;BME280;41724;51.176;-0.708;2022-10-28T01:10:45;100845.88;;;18.98;58.09
55517;BME280;41724;51.176;-0.708;2022-10-28T01:13:25;100845.13;;;18.44;58.92
55517;BME280;41724;51.176;-0.708;2022-10-28T01:16:03;100837.03;;;18.75;58.52
55517;BME280;41724;51.176;-0.708;2022-10-28T01:18:40;100833.92;;;18.99;58.01
55517;BME280;41724;51.176;-0.708;2022-10-28T01:22:19;100828.76;;;19.14;57.56
55517;BME280;41724;51.176;-0.708;2022-10-28T01:25:06;100824.03;;;19.25;57.63
55517;BME280;41724;51.176;-0.708;2022-10-28T01:29:01;100819.06;;;19.36;57.14
55517;BME280;41724;51.176;-0.708;2022-10-28T01:31:38;100819.88;;;19.10;56.62
55517;BME280;41724;51.176;-0.708;2022-10-28T01:34:16;100811.11;;;19.44;56.05
55517;BME280;41724;51.176;-0.708;2022-10-28T01:36:55;100816.41;;;19.12;55.82
55517;BME280;41724;51.176;-0.708;2022-10-28T01:39:31;100816.14;;;19.37;55.82
55517;BME280;41724;51.176;-0.708;2022-10-28T01:42:07;100812.68;;;19.42;55.48
55517;BME280;41724;51.176;-0.708;2022-10-28T01:44:44;100813.05;;;19.01;55.73
55517;BME280;41724;51.176;-0.708;2022-10-28T01:47:19;100810.99;;;19.26;55.36
55517;BME280;41724;51.176;-0.708;2022-10-28T01:49:51;100808.38;;;18.91;55.70
55517;BME280;41724;51.176;-0.708;2022-10-28T01:52:25;100797.81;;;18.85;55.89
55517;BME280;41724;51.176;-0.708;2022-10-28T01:54:59;100799.99;;;19.15;55.73
55517;BME280;41724;51.176;-0.708;2022-10-28T01:57:29;100790.96;;;19.05;55.36
55517;BME280;41724;51.176;-0.708;2022-10-28T01:59:59;100783.42;;;18.94;55.40
55517;BME280;41724;51.176;-0.708;2022-10-28T02:02:31;100773.70;;;18.90;55.61
55517;BME280;41724;51.176;-0.708;2022-10-28T02:05:04;100768.43;;;18.85;55.62
55517;BME280;41724;51.176;-0.708;2022-10-28T02:07:32;100763.07;;;18.89;55.13
55517;BME280;41724;51.176;-0.708;2022-10-28T02:10:03;100759.14;;;18.98;55.38
55517;BME280;41724;51.176;-0.708;2022-10-28T02:12:36;100753.47;;;18.70;55.15
55517;BME280;41724;51.176;-0.708;2022-10-28T02:15:18;100744.35;;;18.64;55.31
55517;BME280;41724;51.176;-0.708;2022-10-28T02:18:01;100740.93;;;18.60;55.43
55517;BME280;41724;51.176;-0.708;2022-10-28T02:20:35;100736.80;;;18.45;55.47
55517;BME280;41724;51.176;-0.708;2022-10-28T02:23:16;100735.46;;;18.35;55.50
55517;BME280;41724;51.176;-0.708;2022-10-28T02:25:51;100726.88;;;18.37;55.48
55517;BME280;41724;51.176;-0.708;2022-10-28T02:28:31;100726.53;;;18.47;55.46
55517;BME280;41724;51.176;-0.708;2022-10-28T02:31:07;100721.54;;;18.68;55.03
55517;BME280;41724;51.176;-0.708;2022-10-28T02:33:38;100716.50;;;18.14;55.87
55517;BME280;41724;51.176;-0.708;2022-10-28T02:36:13;100723.03;;;18.42;55.55
55517;BME280;41724;51.176;-0.708;2022-10-28T02:38:43;100721.15;;;18.46;55.02
55517;BME280;41724;51.176;-0.708;2022-10-28T02:41:17;100713.05;;;18.27;55.17
55517;BME280;41724;51.176;-0.708;2022-10-28T02:43:47;100712.72;;;18.19;55.87
55517;BME280;41724;51.176;-0.708;2022-10-28T02:46:18;100713.09;;;18.30;55.57
55517;BME280;41724;51.176;-0.708;2022-10-28T02:48:47;100703.22;;;18.24;55.61
55517;BME280;41724;51.176;-0.708;2022-10-28T02:51:17;100705.77;;;18.30;55.89
55517;BME280;41724;51.176;-0.708;2022-10-28T02:53:55;100702.29;;;18.44;57.88
55517;BME280;41724;51.176;-0.708;2022-10-28T02:56:26;100699.27;;;18.34;56.24
55517;BME280;41724;51.176;-0.708;2022-10-28T02:58:55;100695.56;;;18.17;55.57
55517;BME280;41724;51.176;-0.708;2022-10-28T03:01:23;100693.43;;;18.37;55.64
55517;BME280;41724;51.176;-0.708;2022-10-28T03:03:50;100691.95;;;18.49;55.51
55517;BME280;41724;51.176;-0.708;2022-10-28T03:06:17;100688.18;;;18.28;57.54
55517;BME280;41724;51.176;-0.708;2022-10-28T03:08:44;100684.55;;;18.86;57.35
55517;BME280;41724;51.176;-0.708;2022-10-28T03:11:12;100687.15;;;18.63;58.04
55517;BME280;41724;51.176;-0.708;2022-10-28T03:13:39;100687.75;;;18.26;58.38
55517;BME280;41724;51.176;-0.708;2022-10-28T03:16:06;100690.47;;;18.81;57.80
55517;BME280;41724;51.176;-0.708;2022-10-28T03:18:33;100690.31;;;18.67;58.57
55517;BME280;41724;51.176;-0.708;2022-10-28T03:21:01;100686.66;;;18.83;59.63
55517;BME280;41724;51.176;-0.708;2022-10-28T03:23:28;100689.96;;;18.70;61.30
55517;BME280;41724;51.176;-0.708;2022-10-28T03:25:55;100689.53;;;18.82;59.78
55517;BME280;41724;51.176;-0.708;2022-10-28T03:28:22;100691.23;;;18.95;59.08
55517;BME280;41724;51.176;-0.708;2022-10-28T03:30:50;100688.85;;;19.15;58.77
55517;BME280;41724;51.176;-0.708;2022-10-28T03:33:17;100685.74;;;19.19;58.99
55517;BME280;41724;51.176;-0.708;2022-10-28T03:35:44;100684.11;;;19.14;58.97
55517;BME280;41724;51.176;-0.708;2022-10-28T03:38:11;100682.85;;;19.21;59.02
55517;BME280;41724;51.176;-0.708;2022-10-28T03:40:38;100689.35;;;19.36;58.76
55517;BME280;41724;51.176;-0.708;2022-10-28T03:43:06;100686.05;;;19.26;60.76
55517;BME280;41724;51.176;-0.708;2022-10-28T03:45:33;100677.91;;;19.39;59.91
55517;BME280;41724;51.176;-0.708;2022-10-28T03:48:00;100678.40;;;19.42;59.77
55517;BME280;41724;51.176;-0.708;2022-10-28T03:50:27;100668.13;;;19.21;60.32
55517;BME280;41724;51.176;-0.708;2022-10-28T03:52:55;100659.12;;;19.58;59.52
55517;BME280;41724;51.176;-0.708;2022-10-28T03:55:22;100659.21;;;18.06;64.72
55517;BME280;41724;51.176;-0.708;2022-10-28T03:57:49;100658.80;;;19.31;60.67
55517;BME280;41724;51.176;-0.708;2022-10-28T04:00:17;100662.88;;;17.63;65.79
55517;BME280;41724;51.176;-0.708;2022-10-28T04:02:48;100657.70;;;19.32;61.75
55517;BME280;41724;51.176;-0.708;2022-10-28T04:05:16;100648.00;;;18.10;65.11
55517;BME280;41724;51.176;-0.708;2022-10-28T04:07:43;100646.77;;;18.40;64.63
55517;BME280;41724;51.176;-0.708;2022-10-28T04:10:11;100648.33;;;19.24;62.05
55517;BME280;41724;51.176;-0.708;2022-10-28T04:12:38;100631.69;;;19.74;61.31
55517;BME280;41724;51.176;-0.708;2022-10-28T04:15:06;100638.77;;;19.66;61.00
55517;BME280;41724;51.176;-0.708;2022-10-28T04:17:34;100638.75;;;19.42;63.12
55517;BME280;41724;51.176;-0.708;2022-10-28T04:20:01;100632.36;;;19.46;62.68
55517;BME280;41724;51.176;-0.708;2022-10-28T04:22:28;100625.86;;;18.38;65.18
55517;BME280;41724;51.176;-0.708;2022-10-28T04:24:55;100625.83;;;18.61;65.67
55517;BME280;41724;51.176;-0.708;2022-10-28T04:27:23;100628.20;;;19.20;63.84
55517;BME280;41724;51.176;-0.708;2022-10-28T04:29:50;100625.48;;;19.39;62.85
55517;BME280;41724;51.176;-0.708;2022-10-28T04:32:17;100625.59;;;19.22;63.35
55517;BME280;41724;51.176;-0.708;2022-10-28T04:34:44;100624.20;;;19.14;63.35
55517;BME280;41724;51.176;-0.708;2022-10-28T04:37:11;100619.29;;;18.67;65.95
55517;BME280;41724;51.176;-0.708;2022-10-28T04:39:39;100622.93;;;19.00;64.03
55517;BME280;41724;51.176;-0.708;2022-10-28T04:42:06;100612.85;;;19.23;63.26
55517;BME280;41724;51.176;-0.708;2022-10-28T04:44:33;100615.83;;;19.44;63.04
55517;BME280;41724;51.176;-0.708;2022-10-28T04:47:00;100625.23;;;19.54;63.18
55517;BME280;41724;51.176;-0.708;2022-10-28T04:49:27;100626.89;;;18.08;68.46
55517;BME280;41724;51.176;-0.708;2022-10-28T04:51:55;100634.35;;;18.79;66.27
55517;BME280;41724;51.176;-0.708;2022-10-28T04:54:22;100646.46;;;19.22;64.12
55517;BME280;41724;51.176;-0.708;2022-10-28T04:56:49;100654.11;;;18.63;65.49
55517;BME280;41724;51.176;-0.708;2022-10-28T04:59:16;100665.96;;;19.25;63.65
55517;BME280;41724;51.176;-0.708;2022-10-28T05:01:43;100675.08;;;17.92;68.41
55517;BME280;41724;51.176;-0.708;2022-10-28T05:04:11;100656.59;;;17.84;69.77
55517;BME280;41724;51.176;-0.708;2022-10-28T05:06:38;100651.73;;;18.19;68.49
55517;BME280;41724;51.176;-0.708;2022-10-28T05:09:05;100646.23;;;18.53;66.31
55517;BME280;41724;51.176;-0.708;2022-10-28T05:11:32;100647.08;;;19.01;64.87
55517;BME280;41724;51.176;-0.708;2022-10-28T05:13:59;100641.76;;;19.11;64.41
55517;BME280;41724;51.176;-0.708;2022-10-28T05:16:27;100636.66;;;19.49;63.06
55517;BME280;41724;51.176;-0.708;2022-10-28T05:18:54;100637.45;;;19.53;62.25
55517;BME280;41724;51.176;-0.708;2022-10-28T05:21:21;100645.49;;;19.14;63.98
55517;BME280;41724;51.176;-0.708;2022-10-28T05:23:49;100645.64;;;19.57;62.95
55517;BME280;41724;51.176;-0.708;2022-10-28T05:26:16;100633.36;;;19.23;63.53
55517;BME280;41724;51.176;-0.708;2022-10-28T05:28:43;100645.04;;;19.80;61.51
55517;BME280;41724;51.176;-0.708;2022-10-28T05:31:11;100623.47;;;19.79;61.45
55517;BME280;41724;51.176;-0.708;2022-10-28T05:33:38;100631.47;;;19.93;60.69
55517;BME280;41724;51.176;-0.708;2022-10-28T05:36:06;100630.45;;;20.05;60.14
55517;BME280;41724;51.176;-0.708;2022-10-28T05:38:33;100618.16;;;20.08;60.47
55517;BME280;41724;51.176;-0.708;2022-10-28T05:41:00;100626.61;;;19.96;60.91
55517;BME280;41724;51.176;-0.708;2022-10-28T05:43:27;100644.81;;;19.71;60.03
55517;BME280;41724;51.176;-0.708;2022-10-28T05:45:55;100647.60;;;20.24;59.98
55517;BME280;41724;51.176;-0.708;2022-10-28T05:48:23;100649.05;;;20.33;59.24
55517;BME280;41724;51.176;-0.708;2022-10-28T05:50:50;100665.74;;;20.08;59.16
55517;BME280;41724;51.176;-0.708;2022-10-28T05:53:17;100654.07;;;19.74;60.10
55517;BME280;41724;51.176;-0.708;2022-10-28T05:55:45;100654.86;;;20.35;58.90
55517;BME280;41724;51.176;-0.708;2022-10-28T05:58:12;100651.51;;;20.27;58.72
55517;BME280;41724;51.176;-0.708;2022-10-28T06:00:39;100668.48;;;20.15;59.53
55517;BME280;41724;51.176;-0.708;2022-10-28T06:03:09;100669.56;;;19.92;60.85
55517;BME280;41724;51.176;-0.708;2022-10-28T06:05:39;100662.96;;;20.24;59.64
55517;BME280;41724;51.176;-0.708;2022-10-28T06:08:10;100665.59;;;20.10;60.27
55517;BME280;41724;51.176;-0.708;2022-10-28T06:10:38;100663.49;;;20.07;59.97
55517;BME280;41724;51.176;-0.708;2022-10-28T06:13:06;100659.15;;;19.78;60.67
55517;BME280;41724;51.176;-0.708;2022-10-28T06:15:34;100656.36;;;19.76;61.85
55517;BME280;41724;51.176;-0.708;2022-10-28T06:18:01;100656.61;;;19.67;61.29
55517;BME280;41724;51.176;-0.708;2022-10-28T06:20:28;100666.67;;;19.33;64.31
55517;BME280;41724;51.176;-0.708;2022-10-28T06:22:55;100658.11;;;18.96;65.57
55517;BME280;41724;51.176;-0.708;2022-10-28T06:25:24;100656.36;;;19.35;64.16
55517;BME280;41724;51.176;-0.708;2022-10-28T06:27:54;100663.00;;;19.24;64.50
55517;BME280;41724;51.176;-0.708;2022-10-28T06:30:22;100657.12;;;18.01;70.34
55517;BME280;41724;51.176;-0.708;2022-10-28T06:32:49;100664.97;;;17.73;71.48
55517;BME280;41724;51.176;-0.708;2022-10-28T06:35:16;100658.03;;;17.38;75.01
55517;BME280;41724;51.176;-0.708;2022-10-28T06:37:43;100662.30;;;17.85;72.16
55517;BME280;41724;51.176;-0.708;2022-10-28T06:40:10;100672.86;;;17.10;72.44
55517;BME280;41724;51.176;-0.708;2022-10-28T06:42:38;100678.91;;;17.54;72.72
55517;BME280;41724;51.176;-0.708;2022-10-28T06:45:06;100679.67;;;18.17;71.36
55517;BME280;41724;51.176;-0.708;2022-10-28T06:47:33;100680.87;;;17.43;73.00
55517;BME280;41724;51.176;-0.708;2022-10-28T06:50:00;100690.12;;;17.04;76.22
55517;BME280;41724;51.176;-0.708;2022-10-28T06:52:27;100676.89;;;17.68;74.46
55517;BME280;41724;51.176;-0.708;2022-10-28T06:54:54;100686.65;;;16.69;77.06
55517;BME280;41724;51.176;-0.708;2022-10-28T06:57:22;100674.27;;;18.38;70.83
55517;BME280;41724;51.176;-0.708;2022-10-28T06:59:49;100678.84;;;18.41;70.61
55517;BME280;41724;51.176;-0.708;2022-10-28T07:02:16;100689.64;;;18.50;68.34
55517;BME280;41724;51.176;-0.708;2022-10-28T07:04:43;100696.19;;;17.83;70.51
55517;BME280;41724;51.176;-0.708;2022-10-28T07:07:10;100697.01;;;18.25;70.97
55517;BME280;41724;51.176;-0.708;2022-10-28T07:09:38;100689.44;;;18.24;71.01
55517;BME280;41724;51.176;-0.708;2022-10-28T07:12:06;100694.56;;;17.67;71.45
55517;BME280;41724;51.176;-0.708;2022-10-28T07:14:33;100699.64;;;18.01;71.93
55517;BME280;41724;51.176;-0.708;2022-10-28T07:17:00;100710.75;;;17.93;72.23
55517;BME280;41724;51.176;-0.708;2022-10-28T07:19:28;100718.99;;;17.74;71.62
55517;BME280;41724;51.176;-0.708;2022-10-28T07:21:55;100716.55;;;17.87;71.00
55517;BME280;41724;51.176;-0.708;2022-10-28T07:24:22;100723.59;;;17.90;70.45
55517;BME280;41724;51.176;-0.708;2022-10-28T07:26:49;100720.63;;;17.97;72.13
55517;BME280;41724;51.176;-0.708;2022-10-28T07:29:16;100724.91;;;17.98;73.43
55517;BME280;41724;51.176;-0.708;2022-10-28T07:31:52;100721.96;;;17.10;76.08
55517;BME280;41724;51.176;-0.708;2022-10-28T07:34:19;100731.74;;;17.08;77.83
55517;BME280;41724;51.176;-0.708;2022-10-28T07:36:48;100748.22;;;17.88;75.10
55517;BME280;41724;51.176;-0.708;2022-10-28T07:39:16;100753.37;;;16.94;79.21
55517;BME280;41724;51.176;-0.708;2022-10-28T07:41:44;100743.03;;;16.88;81.27
55517;BME280;41724;51.176;-0.708;2022-10-28T07:44:11;100753.53;;;16.63;82.31
55517;BME280;41724;51.176;-0.708;2022-10-28T07:46:38;100764.24;;;16.44;81.52
55517;BME280;41724;51.176;-0.708;2022-10-28T07:49:05;100773.72;;;16.42;82.31
55517;BME280;41724;51.176;-0.708;2022-10-28T07:51:33;100769.85;;;17.40;78.44
55517;BME280;41724;51.176;-0.708;2022-10-28T07:54:00;100775.79;;;17.47;77.93
55517;BME280;41724;51.176;-0.708;2022-10-28T07:56:27;100788.64;;;16.71;80.78
55517;BME280;41724;51.176;-0.708;2022-10-28T07:58:54;100807.61;;;16.71;81.59
55517;BME280;41724;51.176;-0.708;2022-10-28T08:01:21;100835.97;;;16.89;82.14
55517;BME280;41724;51.176;-0.708;2022-10-28T08:03:49;100834.79;;;15.89;85.04
55517;BME280;41724;51.176;-0.708;2022-10-28T08:06:23;100837.19;;;16.21;81.85
55517;BME280;41724;51.176;-0.708;2022-10-28T08:08:53;100831.93;;;17.51;76.41
55517;BME280;41724;51.176;-0.708;2022-10-28T08:11:21;100845.00;;;16.63;76.27
55517;BME280;41724;51.176;-0.708;2022-10-28T08:13:49;100847.03;;;15.38;79.19
55517;BME280;41724;51.176;-0.708;2022-10-28T08:16:16;100846.23;;;15.58;78.06
55517;BME280;41724;51.176;-0.708;2022-10-28T08:18:44;100838.45;;;15.83;77.55
55517;BME280;41724;51.176;-0.708;2022-10-28T08:21:12;100830.50;;;16.10;75.06
55517;BME280;41724;51.176;-0.708;2022-10-28T08:23:40;100829.91;;;16.51;72.90
55517;BME280;41724;51.176;-0.708;2022-10-28T08:26:07;100831.17;;;16.00;75.24
55517;BME280;41724;51.176;-0.708;2022-10-28T08:28:35;100836.65;;;15.96;74.35
55517;BME280;41724;51.176;-0.708;2022-10-28T08:31:03;100828.87;;;16.15;73.65
55517;BME280;41724;51.176;-0.708;2022-10-28T08:33:31;100833.46;;;15.45;74.71
55517;BME280;41724;51.176;-0.708;2022-10-28T08:35:58;100826.29;;;16.62;70.70
55517;BME280;41724;51.176;-0.708;2022-10-28T08:38:25;100840.15;;;15.82;73.11
55517;BME280;41724;51.176;-0.708;2022-10-28T08:41:01;100832.80;;;15.87;71.19
55517;BME280;41724;51.176;-0.708;2022-10-28T08:43:41;100843.76;;;16.00;71.90
55517;BME280;41724;51.176;-0.708;2022-10-28T08:46:19;100842.22;;;16.59;69.99
55517;BME280;41724;51.176;-0.708;2022-10-28T08:48:49;100845.91;;;16.87;67.88
55517;BME280;41724;51.176;-0.708;2022-10-28T08:51:19;100859.69;;;16.79;67.40
55517;BME280;41724;51.176;-0.708;2022-10-28T08:53:51;100861.40;;;16.41;68.77
55517;BME280;41724;51.176;-0.708;2022-10-28T08:56:27;100862.15;;;16.81;68.51
55517;BME280;41724;51.176;-0.708;2022-10-28T08:59:01;100868.66;;;17.82;65.17
55517;BME280;41724;51.176;-0.708;2022-10-28T09:01:38;100883.73;;;15.99;69.22
55517;BME280;41724;51.176;-0.708;2022-10-28T09:04:17;100878.14;;;16.69;69.63
55517;BME280;41724;51.176;-0.708;2022-10-28T09:06:47;100884.15;;;17.25;67.22
55517;BME280;41724;51.176;-0.708;2022-10-28T09:09:18;100894.14;;;17.22;66.19
55517;BME280;41724;51.176;-0.708;2022-10-28T09:11:56;100898.97;;;16.42;69.59
55517;BME280;41724;51.176;-0.708;2022-10-28T09:14:36;100905.54;;;16.99;67.15
55517;BME280;41724;51.176;-0.708;2022-10-28T09:17:14;100918.15;;;16.92;68.92
55517;BME280;41724;51.176;-0.708;2022-10-28T09:19:49;100923.43;;;15.78;71.20
55517;BME280;41724;51.176;-0.708;2022-10-28T09:22:22;100923.95;;;15.50;72.52
55517;BME280;41724;51.176;-0.708;2022-10-28T09:24:52;100929.00;;;15.18;72.33
55517;BME280;41724;51.176;-0.708;2022-10-28T09:27:37;100927.33;;;16.31;69.44
55517;BME280;41724;51.176;-0.708;2022-10-28T09:30:27;100930.91;;;17.40;66.45
55517;BME280;41724;51.176;-0.708;2022-10-28T09:33:08;100936.53;;;15.92;69.47
55517;BME280;41724;51.176;-0.708;2022-10-28T09:35:46;100943.54;;;17.30;65.56
55517;BME280;41724;51.176;-0.708;2022-10-28T09:38:20;100941.94;;;17.48;63.61
55517;BME280;41724;51.176;-0.708;2022-10-28T09:40:53;100953.92;;;16.08;69.45
55517;BME280;41724;51.176;-0.708;2022-10-28T09:43:27;100950.52;;;16.91;66.96
55517;BME280;41724;51.176;-0.708;2022-10-28T09:46:00;100955.80;;;16.06;68.84
55517;BME280;41724;51.176;-0.708;2022-10-28T09:48:32;100956.56;;;16.42;68.81
55517;BME280;41724;51.176;-0.708;2022-10-28T09:51:00;100961.83;;;16.24;68.01
55517;BME280;41724;51.176;-0.708;2022-10-28T09:53:36;100962.26;;;15.82;69.96
55517;BME280;41724;51.176;-0.708;2022-10-28T09:56:05;100963.87;;;16.72;68.84
55517;BME280;41724;51.176;-0.708;2022-10-28T09:58:32;100978.95;;;16.44;68.81
55517;BME280;41724;51.176;-0.708;2022-10-28T10:01:02;100975.49;;;16.41;68.91
55517;BME280;41724;51.176;-0.708;2022-10-28T10:03:29;100981.83;;;17.92;63.04
55517;BME280;41724;51.176;-0.708;2022-10-28T10:06:05;100977.75;;;16.49;65.54
55517;BME280;41724;51.176;-0.708;2022-10-28T10:08:35;100999.65;;;16.19;67.81
55517;BME280;41724;51.176;-0.708;2022-10-28T10:11:06;101000.90;;;17.02;67.12
55517;BME280;41724;51.176;-0.708;2022-10-28T10:13:41;101004.19;;;17.10;65.40
55517;BME280;41724;51.176;-0.708;2022-10-28T10:16:13;101010.53;;;17.62;61.77
55517;BME280;41724;51.176;-0.708;2022-10-28T10:18:50;101019.15;;;17.43;64.10
55517;BME280;41724;51.176;-0.708;2022-10-28T10:21:17;101021.52;;;17.16;65.03
55517;BME280;41724;51.176;-0.708;2022-10-28T10:24:22;101032.59;;;17.36;62.86
55517;BME280;41724;51.176;-0.708;2022-10-28T10:26:50;101022.70;;;17.04;64.18
55517;BME280;41724;51.176;-0.708;2022-10-28T10:29:17;101029.87;;;16.34;64.98
55517;BME280;41724;51.176;-0.708;2022-10-28T10:31:46;101031.89;;;16.94;63.55
55517;BME280;41724;51.176;-0.708;2022-10-28T10:34:22;101035.85;;;17.79;62.24
55517;BME280;41724;51.176;-0.708;2022-10-28T10:36:53;101033.06;;;16.68;64.44
55517;BME280;41724;51.176;-0.708;2022-10-28T10:39:26;101049.80;;;16.87;62.29
55517;BME280;41724;51.176;-0.708;2022-10-28T10:41:57;101052.09;;;16.31;65.95
55517;BME280;41724;51.176;-0.708;2022-10-28T10:44:31;101048.34;;;16.40;66.92
55517;BME280;41724;51.176;-0.708;2022-10-28T10:47:18;101044.96;;;16.91;65.18
55517;BME280;41724;51.176;-0.708;2022-10-28T10:49:45;101036.08;;;17.94;62.67
55517;BME280;41724;51.176;-0.708;2022-10-28T10:52:18;101043.93;;;17.52;62.67
55517;BME280;41724;51.176;-0.708;2022-10-28T10:54:57;101044.69;;;18.52;60.22
55517;BME280;41724;51.176;-0.708;2022-10-28T10:57:27;101050.66;;;17.39;61.59
55517;BME280;41724;51.176;-0.708;2022-10-28T10:59:56;101055.50;;;17.89;59.11
55517;BME280;41724;51.176;-0.708;2022-10-28T11:02:26;101064.08;;;17.00;61.80
55517;BME280;41724;51.176;-0.708;2022-10-28T11:04:57;101061.30;;;17.56;59.66
55517;BME280;41724;51.176;-0.708;2022-10-28T11:07:24;101061.60;;;18.25;57.13
55517;BME280;41724;51.176;-0.708;2022-10-28T11:09:52;101063.41;;;19.03;55.56
55517;BME280;41724;51.176;-0.708;2022-10-28T11:12:25;101076.89;;;18.52;56.74
55517;BME280;41724;51.176;-0.708;2022-10-28T11:14:55;101078.51;;;18.56;56.98
55517;BME280;41724;51.176;-0.708;2022-10-28T11:17:24;101087.95;;;18.83;57.23
55517;BME280;41724;51.176;-0.708;2022-10-28T11:19:55;101087.00;;;18.37;56.64
55517;BME280;41724;51.176;-0.708;2022-10-28T11:22:33;101079.65;;;19.66;54.55
55517;BME280;41724;51.176;-0.708;2022-10-28T11:25:28;101082.96;;;19.65;53.68
55517;BME280;41724;51.176;-0.708;2022-10-28T11:28:10;101082.22;;;20.75;51.20
55517;BME280;41724;51.176;-0.708;2022-10-28T11:30:54;101085.83;;;19.27;54.97
55517;BME280;41724;51.176;-0.708;2022-10-28T11:33:33;101093.05;;;17.99;59.11
55517;BME280;41724;51.176;-0.708;2022-10-28T11:36:08;101110.27;;;18.19;59.30
55517;BME280;41724;51.176;-0.708;2022-10-28T11:38:52;101099.27;;;18.50;58.30
55517;BME280;41724;51.176;-0.708;2022-10-28T11:41:30;101096.15;;;19.35;56.55
55517;BME280;41724;51.176;-0.708;2022-10-28T11:43:59;101099.17;;;18.89;55.29
55517;BME280;41724;51.176;-0.708;2022-10-28T11:46:37;101087.72;;;20.12;53.71
55517;BME280;41724;51.176;-0.708;2022-10-28T11:49:55;101087.34;;;20.08;52.31
55517;BME280;41724;51.176;-0.708;2022-10-28T11:52:36;101085.93;;;19.52;53.38
55517;BME280;41724;51.176;-0.708;2022-10-28T11:55:21;101083.13;;;19.97;53.09
55517;BME280;41724;51.176;-0.708;2022-10-28T11:58:02;101075.65;;;20.64;51.77
55517;BME280;41724;51.176;-0.708;2022-10-28T12:00:58;101084.93;;;20.47;51.80
55517;BME280;41724;51.176;-0.708;2022-10-28T12:03:41;101086.72;;;20.24;51.21
55517;BME280;41724;51.176;-0.708;2022-10-28T12:06:19;101087.52;;;20.86;51.32
55517;BME280;41724;51.176;-0.708;2022-10-28T12:09:03;101088.55;;;20.34;51.11
55517;BME280;41724;51.176;-0.708;2022-10-28T12:11:43;101085.71;;;21.63;49.50
55517;BME280;41724;51.176;-0.708;2022-10-28T12:14:24;101088.89;;;21.49;47.74
55517;BME280;41724;51.176;-0.708;2022-10-28T12:17:00;101098.40;;;20.72;48.78
55517;BME280;41724;51.176;-0.708;2022-10-28T12:19:31;101095.80;;;20.96;49.60
55517;BME280;41724;51.176;-0.708;2022-10-28T12:22:05;101096.17;;;21.28;48.94
55517;BME280;41724;51.176;-0.708;2022-10-28T12:24:41;101093.52;;;20.99;49.58
55517;BME280;41724;51.176;-0.708;2022-10-28T12:27:16;101095.99;;;20.35;51.42
55517;BME280;41724;51.176;-0.708;2022-10-28T12:29:49;101104.74;;;19.69;51.90
55517;BME280;41724;51.176;-0.708;2022-10-28T12:32:20;101115.83;;;18.96;55.41
55517;BME280;41724;51.176;-0.708;2022-10-28T12:34:52;101113.60;;;18.65;55.81
55517;BME280;41724;51.176;-0.708;2022-10-28T12:37:26;101100.09;;;19.23;53.06
55517;BME280;41724;51.176;-0.708;2022-10-28T12:40:03;101107.59;;;18.91;54.41
55517;BME280;41724;51.176;-0.708;2022-10-28T12:42:37;101106.03;;;19.28;52.81
55517;BME280;41724;51.176;-0.708;2022-10-28T12:45:13;101119.22;;;20.10;50.91
55517;BME280;41724;51.176;-0.708;2022-10-28T12:47:51;101125.57;;;20.07;48.89
55517;BME280;41724;51.176;-0.708;2022-10-28T12:50:27;101124.89;;;19.54;50.98
55517;BME280;41724;51.176;-0.708;2022-10-28T12:53:11;101134.75;;;19.72;49.94
55517;BME280;41724;51.176;-0.708;2022-10-28T12:55:49;101133.30;;;20.43;48.94
55517;BME280;41724;51.176;-0.708;2022-10-28T12:58:22;101135.82;;;19.19;50.73
55517;BME280;41724;51.176;-0.708;2022-10-28T13:00:54;101133.29;;;19.82;48.85
55517;BME280;41724;51.176;-0.708;2022-10-28T13:03:23;101133.08;;;21.03;47.13
55517;BME280;41724;51.176;-0.708;2022-10-28T13:05:55;101137.98;;;20.92;47.57